sensor_id;sensor_type;location;lat;lon;timestamp;pressure;altitude;pressure_sealevel;temperature;humidity
82986;BME280;72786;53.546;9.910;2023-10-13T00:01:06;100639.78;;;14.02;91.36
82986;BME280;72786;53.546;9.910;2023-10-13T00:03:34;100634.63;;;14.02;91.06
82986;BME280;72786;53.546;9.910;2023-10-13T00:06:03;100601.97;;;13.81;91.38
82986;BME280;72786;53.546;9.910;2023-10-13T00:08:30;100640.91;;;14.06;91.69
82986;BME280;72786;53.546;9.910;2023-10-13T00:10:56;100591.66;;;13.81;91.88
82986;BME280;72786;53.546;9.910;2023-10-13T00:13:29;100637.19;;;14.02;91.84
82986;BME280;72786;53.546;9.910;2023-10-13T00:16:00;100636.16;;;14.00;91.98
82986;BME280;72786;53.546;9.910;2023-10-13T00:18:31;100614.03;;;13.92;92.79
82986;BME280;72786;53.546;9.910;2023-10-13T00:21:01;100609.91;;;13.94;91.42
82986;BME280;72786;53.546;9.910;2023-10-13T00:24:01;100606.75;;;13.98;93.25
82986;BME280;72786;53.546;9.910;2023-10-13T00:26:32;100605.63;;;13.95;92.21
82986;BME280;72786;53.546;9.910;2023-10-13T00:29:03;100601.47;;;13.97;92.53
82986;BME280;72786;53.546;9.910;2023-10-13T00:31:40;100626.31;;;14.06;93.20
82986;BME280;72786;53.546;9.910;2023-10-13T00:34:12;100631.84;;;14.11;92.92
82986;BME280;72786;53.546;9.910;2023-10-13T00:36:44;100610.91;;;14.08;92.20
82986;BME280;72786;53.546;9.910;2023-10-13T00:39:29;100621.38;;;14.09;93.45
82986;BME280;72786;53.546;9.910;2023-10-13T00:41:56;100607.69;;;14.10;93.48
82986;BME280;72786;53.546;9.910;2023-10-13T00:44:33;100604.31;;;14.11;93.88
82986;BME280;72786;53.546;9.910;2023-10-13T00:47:09;100603.00;;;14.16;93.24
82986;BME280;72786;53.546;9.910;2023-10-13T00:49:37;100603.00;;;14.16;93.25
82986;BME280;72786;53.546;9.910;2023-10-13T00:52:06;100602.75;;;14.13;93.66
82986;BME280;72786;53.546;9.910;2023-10-13T00:54:37;100596.03;;;14.15;93.89
82986;BME280;72786;53.546;9.910;2023-10-13T00:57:05;100594.44;;;14.17;94.08
82986;BME280;72786;53.546;9.910;2023-10-13T00:59:38;100548.13;;;13.97;93.61
82986;BME280;72786;53.546;9.910;2023-10-13T01:02:04;100581.53;;;14.17;93.41
82986;BME280;72786;53.546;9.910;2023-10-13T01:04:49;100581.78;;;14.20;93.65
82986;BME280;72786;53.546;9.910;2023-10-13T01:07:16;100565.03;;;14.15;93.38
82986;BME280;72786;53.546;9.910;2023-10-13T01:09:43;100557.28;;;14.15;94.05
82986;BME280;72786;53.546;9.910;2023-10-13T01:12:10;100572.00;;;14.28;93.80
82986;BME280;72786;53.546;9.910;2023-10-13T01:14:36;100571.34;;;14.30;93.36
82986;BME280;72786;53.546;9.910;2023-10-13T01:17:03;100566.63;;;14.25;94.32
82986;BME280;72786;53.546;9.910;2023-10-13T01:19:35;100564.56;;;14.32;94.29
82986;BME280;72786;53.546;9.910;2023-10-13T01:22:05;100557.59;;;14.31;94.26
82986;BME280;72786;53.546;9.910;2023-10-13T01:24:33;100554.91;;;14.41;92.86
82986;BME280;72786;53.546;9.910;2023-10-13T01:27:03;100544.69;;;14.42;94.03
82986;BME280;72786;53.546;9.910;2023-10-13T01:29:51;100543.22;;;14.46;93.95
82986;BME280;72786;53.546;9.910;2023-10-13T01:32:25;100536.84;;;14.41;93.16
82986;BME280;72786;53.546;9.910;2023-10-13T01:34:52;100539.66;;;14.44;92.87
82986;BME280;72786;53.546;9.910;2023-10-13T01:37:22;100522.91;;;14.39;93.99
82986;BME280;72786;53.546;9.910;2023-10-13T01:39:49;100534.34;;;14.54;94.66
82986;BME280;72786;53.546;9.910;2023-10-13T01:42:17;100517.47;;;14.59;94.16
82986;BME280;72786;53.546;9.910;2023-10-13T01:44:48;100511.31;;;14.57;92.82
82986;BME280;72786;53.546;9.910;2023-10-13T01:47:15;100518.28;;;14.58;94.16
82986;BME280;72786;53.546;9.910;2023-10-13T01:49:43;100522.44;;;14.56;94.41
82986;BME280;72786;53.546;9.910;2023-10-13T01:52:14;100508.41;;;14.52;93.27
82986;BME280;72786;53.546;9.910;2023-10-13T01:54:45;100496.50;;;14.54;93.90
82986;BME280;72786;53.546;9.910;2023-10-13T01:57:12;100502.53;;;14.55;94.82
82986;BME280;72786;53.546;9.910;2023-10-13T01:59:46;100469.75;;;14.42;94.28
82986;BME280;72786;53.546;9.910;2023-10-13T02:02:14;100450.34;;;14.36;94.45
82986;BME280;72786;53.546;9.910;2023-10-13T02:04:42;100497.13;;;14.63;94.06
82986;BME280;72786;53.546;9.910;2023-10-13T02:07:16;100492.88;;;14.64;94.02
82986;BME280;72786;53.546;9.910;2023-10-13T02:09:43;100464.56;;;14.54;92.87
82986;BME280;72786;53.546;9.910;2023-10-13T02:12:09;100481.06;;;14.67;94.35
82986;BME280;72786;53.546;9.910;2023-10-13T02:14:37;100475.44;;;14.73;94.33
82986;BME280;72786;53.546;9.910;2023-10-13T02:17:04;100461.59;;;14.72;94.21
82986;BME280;72786;53.546;9.910;2023-10-13T02:19:40;100454.84;;;14.74;93.75
82986;BME280;72786;53.546;9.910;2023-10-13T02:22:11;100426.44;;;14.63;93.55
82986;BME280;72786;53.546;9.910;2023-10-13T02:24:38;100444.97;;;14.69;94.70
82986;BME280;72786;53.546;9.910;2023-10-13T02:27:07;100446.66;;;14.68;94.57
82986;BME280;72786;53.546;9.910;2023-10-13T02:29:40;100435.78;;;14.61;94.40
82986;BME280;72786;53.546;9.910;2023-10-13T02:32:07;100438.00;;;14.68;95.44
82986;BME280;72786;53.546;9.910;2023-10-13T02:34:45;100439.78;;;14.69;95.30
82986;BME280;72786;53.546;9.910;2023-10-13T02:37:11;100432.97;;;14.69;95.69
82986;BME280;72786;53.546;9.910;2023-10-13T02:39:40;100416.09;;;14.63;94.13
82986;BME280;72786;53.546;9.910;2023-10-13T02:42:09;100430.78;;;14.75;93.68
82986;BME280;72786;53.546;9.910;2023-10-13T02:44:50;100424.69;;;14.75;95.09
82986;BME280;72786;53.546;9.910;2023-10-13T02:47:17;100424.50;;;14.72;94.72
82986;BME280;72786;53.546;9.910;2023-10-13T02:49:46;100409.69;;;14.69;93.68
82986;BME280;72786;53.546;9.910;2023-10-13T02:52:13;100417.06;;;14.76;94.03
82986;BME280;72786;53.546;9.910;2023-10-13T02:54:41;100412.78;;;14.77;94.87
82986;BME280;72786;53.546;9.910;2023-10-13T02:57:14;100409.41;;;14.78;94.31
82986;BME280;72786;53.546;9.910;2023-10-13T02:59:42;100406.03;;;14.79;95.31
82986;BME280;72786;53.546;9.910;2023-10-13T03:02:22;100408.81;;;14.82;95.86
82986;BME280;72786;53.546;9.910;2023-10-13T03:04:57;100392.53;;;14.83;95.50
82986;BME280;72786;53.546;9.910;2023-10-13T03:07:27;100388.34;;;14.85;96.10
82986;BME280;72786;53.546;9.910;2023-10-13T03:09:58;100357.06;;;14.69;94.59
82986;BME280;72786;53.546;9.910;2023-10-13T03:12:27;100389.38;;;14.87;96.32
82986;BME280;72786;53.546;9.910;2023-10-13T03:15:00;100379.91;;;14.87;95.67
82986;BME280;72786;53.546;9.910;2023-10-13T03:17:40;100380.78;;;14.88;95.14
82986;BME280;72786;53.546;9.910;2023-10-13T03:20:10;100379.22;;;14.90;95.96
82986;BME280;72786;53.546;9.910;2023-10-13T03:22:44;100374.25;;;14.93;96.92
82986;BME280;72786;53.546;9.910;2023-10-13T03:25:14;100366.50;;;14.93;96.82
82986;BME280;72786;53.546;9.910;2023-10-13T03:27:56;100365.72;;;14.94;96.75
82986;BME280;72786;53.546;9.910;2023-10-13T03:30:27;100359.16;;;14.99;95.80
82986;BME280;72786;53.546;9.910;2023-10-13T03:33:03;100361.75;;;14.99;95.29
82986;BME280;72786;53.546;9.910;2023-10-13T03:35:34;100356.75;;;15.02;96.92
82986;BME280;72786;53.546;9.910;2023-10-13T03:38:10;100355.41;;;15.07;97.24
82986;BME280;72786;53.546;9.910;2023-10-13T03:40:46;100359.88;;;15.09;96.94
82986;BME280;72786;53.546;9.910;2023-10-13T03:43:15;100356.38;;;15.08;97.46
82986;BME280;72786;53.546;9.910;2023-10-13T03:45:50;100351.19;;;15.08;96.76
82986;BME280;72786;53.546;9.910;2023-10-13T03:48:27;100349.72;;;15.12;96.00
82986;BME280;72786;53.546;9.910;2023-10-13T03:50:59;100348.22;;;15.15;97.36
82986;BME280;72786;53.546;9.910;2023-10-13T03:53:37;100337.88;;;15.15;96.77
82986;BME280;72786;53.546;9.910;2023-10-13T03:56:21;100333.13;;;15.21;96.26
82986;BME280;72786;53.546;9.910;2023-10-13T03:58:59;100338.53;;;15.24;96.68
82986;BME280;72786;53.546;9.910;2023-10-13T04:01:47;100329.28;;;15.28;96.20
82986;BME280;72786;53.546;9.910;2023-10-13T04:04:25;100327.00;;;15.32;96.04
82986;BME280;72786;53.546;9.910;2023-10-13T04:07:03;100321.03;;;15.33;97.79
82986;BME280;72786;53.546;9.910;2023-10-13T04:09:37;100323.81;;;15.36;96.59
82986;BME280;72786;53.546;9.910;2023-10-13T04:12:13;100320.41;;;15.37;96.24
82986;BME280;72786;53.546;9.910;2023-10-13T04:14:59;100322.44;;;15.41;96.59
82986;BME280;72786;53.546;9.910;2023-10-13T04:17:31;100314.75;;;15.43;97.54
82986;BME280;72786;53.546;9.910;2023-10-13T04:20:07;100321.03;;;15.46;97.67
82986;BME280;72786;53.546;9.910;2023-10-13T04:22:38;100312.69;;;15.50;97.99
82986;BME280;72786;53.546;9.910;2023-10-13T04:25:21;100302.72;;;15.56;97.09
82986;BME280;72786;53.546;9.910;2023-10-13T04:28:09;100307.56;;;15.65;97.38
82986;BME280;72786;53.546;9.910;2023-10-13T04:30:53;100305.03;;;15.79;98.76
82986;BME280;72786;53.546;9.910;2023-10-13T04:33:30;100281.44;;;15.88;97.90
82986;BME280;72786;53.546;9.910;2023-10-13T04:36:06;100283.59;;;16.22;98.74
82986;BME280;72786;53.546;9.910;2023-10-13T04:38:56;100287.81;;;16.33;98.53
82986;BME280;72786;53.546;9.910;2023-10-13T04:41:27;100280.59;;;16.42;98.80
82986;BME280;72786;53.546;9.910;2023-10-13T04:44:16;100275.78;;;16.48;97.92
82986;BME280;72786;53.546;9.910;2023-10-13T04:47:02;100268.28;;;16.52;98.85
82986;BME280;72786;53.546;9.910;2023-10-13T04:49:30;100257.19;;;16.55;98.78
82986;BME280;72786;53.546;9.910;2023-10-13T04:52:09;100223.13;;;16.49;97.58
82986;BME280;72786;53.546;9.910;2023-10-13T04:57:22;100238.59;;;16.62;98.43
82986;BME280;72786;53.546;9.910;2023-10-13T05:00:03;100210.50;;;16.55;98.14
82986;BME280;72786;53.546;9.910;2023-10-13T05:02:30;100215.31;;;16.63;98.45
82986;BME280;72786;53.546;9.910;2023-10-13T05:05:14;100231.72;;;16.76;97.83
82986;BME280;72786;53.546;9.910;2023-10-13T05:07:41;100209.41;;;16.65;98.02
82986;BME280;72786;53.546;9.910;2023-10-13T05:10:26;100194.22;;;16.71;97.71
82986;BME280;72786;53.546;9.910;2023-10-13T05:13:11;100211.38;;;16.84;97.73
82986;BME280;72786;53.546;9.910;2023-10-13T05:15:57;100207.47;;;16.90;96.89
82986;BME280;72786;53.546;9.910;2023-10-13T05:18:42;100188.13;;;16.85;96.58
82986;BME280;72786;53.546;9.910;2023-10-13T05:21:27;100181.63;;;16.77;97.71
82986;BME280;72786;53.546;9.910;2023-10-13T05:24:13;100155.97;;;16.67;98.12
82986;BME280;72786;53.546;9.910;2023-10-13T05:26:58;100163.63;;;16.80;96.95
82986;BME280;72786;53.546;9.910;2023-10-13T05:29:45;100171.59;;;16.83;97.48
82986;BME280;72786;53.546;9.910;2023-10-13T05:32:30;100189.44;;;16.93;97.06
82986;BME280;72786;53.546;9.910;2023-10-13T05:35:16;100179.06;;;16.93;97.65
82986;BME280;72786;53.546;9.910;2023-10-13T05:38:01;100155.22;;;16.84;97.41
82986;BME280;72786;53.546;9.910;2023-10-13T05:41:00;100173.44;;;17.00;97.11
82986;BME280;72786;53.546;9.910;2023-10-13T05:43:50;100170.75;;;16.99;97.12
82986;BME280;72786;53.546;9.910;2023-10-13T05:46:35;100171.16;;;17.06;96.56
82986;BME280;72786;53.546;9.910;2023-10-13T05:49:15;100174.41;;;17.02;96.83
82986;BME280;72786;53.546;9.910;2023-10-13T05:51:42;100170.22;;;17.04;97.38
82986;BME280;72786;53.546;9.910;2023-10-13T05:54:32;100173.06;;;17.09;97.00
82986;BME280;72786;53.546;9.910;2023-10-13T05:57:18;100165.38;;;17.10;97.53
82986;BME280;72786;53.546;9.910;2023-10-13T06:00:03;100166.16;;;17.09;96.41
82986;BME280;72786;53.546;9.910;2023-10-13T06:02:48;100167.16;;;17.11;97.01
82986;BME280;72786;53.546;9.910;2023-10-13T06:05:33;100158.56;;;17.12;96.68
82986;BME280;72786;53.546;9.910;2023-10-13T06:08:18;100145.22;;;17.06;96.68
82986;BME280;72786;53.546;9.910;2023-10-13T06:11:04;100159.63;;;17.16;96.63
82986;BME280;72786;53.546;9.910;2023-10-13T06:13:50;100169.44;;;17.21;96.40
82986;BME280;72786;53.546;9.910;2023-10-13T06:16:35;100157.09;;;17.17;97.68
82986;BME280;72786;53.546;9.910;2023-10-13T06:19:20;100152.25;;;17.23;96.18
82986;BME280;72786;53.546;9.910;2023-10-13T06:22:05;100128.03;;;17.08;96.38
82986;BME280;72786;53.546;9.910;2023-10-13T06:24:50;100144.31;;;17.20;96.75
82986;BME280;72786;53.546;9.910;2023-10-13T06:27:35;100150.47;;;17.22;96.58
82986;BME280;72786;53.546;9.910;2023-10-13T06:30:20;100142.53;;;17.19;96.71
82986;BME280;72786;53.546;9.910;2023-10-13T06:32:46;100125.63;;;17.11;96.90
82986;BME280;72786;53.546;9.910;2023-10-13T06:35:13;100133.09;;;17.21;96.45
82986;BME280;72786;53.546;9.910;2023-10-13T06:37:50;100110.59;;;17.06;96.52
82986;BME280;72786;53.546;9.910;2023-10-13T06:40:17;100142.66;;;17.22;97.51
82986;BME280;72786;53.546;9.910;2023-10-13T06:42:53;100131.56;;;17.25;96.74
82986;BME280;72786;53.546;9.910;2023-10-13T06:45:21;100113.78;;;17.16;96.54
82986;BME280;72786;53.546;9.910;2023-10-13T06:47:48;100136.09;;;17.27;96.43
82986;BME280;72786;53.546;9.910;2023-10-13T06:50:19;100124.00;;;17.28;96.50
82986;BME280;72786;53.546;9.910;2023-10-13T06:52:51;100128.88;;;17.23;96.65
82986;BME280;72786;53.546;9.910;2023-10-13T06:55:21;100116.09;;;17.26;96.54
82986;BME280;72786;53.546;9.910;2023-10-13T06:57:54;100118.88;;;17.29;96.44
82986;BME280;72786;53.546;9.910;2023-10-13T07:00:29;100109.47;;;17.31;96.86
82986;BME280;72786;53.546;9.910;2023-10-13T07:03:04;100083.69;;;17.20;96.65
82986;BME280;72786;53.546;9.910;2023-10-13T07:05:40;100099.91;;;17.30;96.90
82986;BME280;72786;53.546;9.910;2023-10-13T07:08:10;100099.91;;;17.30;96.47
82986;BME280;72786;53.546;9.910;2023-10-13T07:10:54;100091.47;;;17.34;96.70
82986;BME280;72786;53.546;9.910;2023-10-13T07:13:32;100076.38;;;17.27;96.91
82986;BME280;72786;53.546;9.910;2023-10-13T07:16:03;100076.13;;;17.39;96.81
82986;BME280;72786;53.546;9.910;2023-10-13T07:18:54;100089.94;;;17.38;96.38
82986;BME280;72786;53.546;9.910;2023-10-13T07:21:21;100087.25;;;17.36;96.02
82986;BME280;72786;53.546;9.910;2023-10-13T07:23:59;100063.47;;;17.29;96.50
82986;BME280;72786;53.546;9.910;2023-10-13T07:26:36;100068.56;;;17.43;96.69
82986;BME280;72786;53.546;9.910;2023-10-13T07:29:10;100077.34;;;17.45;96.65
82986;BME280;72786;53.546;9.910;2023-10-13T07:31:37;100046.44;;;17.34;96.71
82986;BME280;72786;53.546;9.910;2023-10-13T07:34:11;100057.31;;;17.42;96.91
82986;BME280;72786;53.546;9.910;2023-10-13T07:36:58;100046.59;;;17.37;97.09
82986;BME280;72786;53.546;9.910;2023-10-13T07:39:34;100043.41;;;17.42;96.19
82986;BME280;72786;53.546;9.910;2023-10-13T07:42:02;100026.16;;;17.42;96.47
82986;BME280;72786;53.546;9.910;2023-10-13T07:44:45;100023.50;;;17.41;97.02
82986;BME280;72786;53.546;9.910;2023-10-13T07:47:13;100021.53;;;17.37;97.04
82986;BME280;72786;53.546;9.910;2023-10-13T07:49:40;99986.47;;;17.29;96.55
82986;BME280;72786;53.546;9.910;2023-10-13T07:52:11;99988.91;;;17.26;96.83
82986;BME280;72786;53.546;9.910;2023-10-13T07:54:49;100004.16;;;17.36;97.34
82986;BME280;72786;53.546;9.910;2023-10-13T07:57:26;99981.75;;;17.22;97.03
82986;BME280;72786;53.546;9.910;2023-10-13T07:59:58;99993.47;;;17.30;96.94
82986;BME280;72786;53.546;9.910;2023-10-13T08:02:39;99989.88;;;17.28;96.97
82986;BME280;72786;53.546;9.910;2023-10-13T08:05:16;99986.31;;;17.26;97.21
82986;BME280;72786;53.546;9.910;2023-10-13T08:08:05;99978.63;;;17.28;97.35
82986;BME280;72786;53.546;9.910;2023-10-13T08:10:41;99963.91;;;17.28;97.07
82986;BME280;72786;53.546;9.910;2023-10-13T08:13:12;99971.47;;;17.24;96.61
82986;BME280;72786;53.546;9.910;2023-10-13T08:15:42;99946.94;;;17.19;97.32
82986;BME280;72786;53.546;9.910;2023-10-13T08:18:16;99935.38;;;17.12;97.17
82986;BME280;72786;53.546;9.910;2023-10-13T08:21:03;99953.03;;;17.19;96.86
82986;BME280;72786;53.546;9.910;2023-10-13T08:23:31;99948.91;;;17.23;96.88
82986;BME280;72786;53.546;9.910;2023-10-13T08:26:16;99953.38;;;17.25;97.33
82986;BME280;72786;53.546;9.910;2023-10-13T08:28:59;99925.00;;;17.12;97.36
82986;BME280;72786;53.546;9.910;2023-10-13T08:31:51;99943.53;;;17.20;97.14
82986;BME280;72786;53.546;9.910;2023-10-13T08:34:36;99944.44;;;17.20;97.70
82986;BME280;72786;53.546;9.910;2023-10-13T08:37:10;99933.09;;;17.18;97.33
82986;BME280;72786;53.546;9.910;2023-10-13T08:39:56;99934.88;;;17.19;96.89
82986;BME280;72786;53.546;9.910;2023-10-13T08:42:51;99942.50;;;17.16;97.55
82986;BME280;72786;53.546;9.910;2023-10-13T08:45:41;99944.09;;;17.14;97.47
82986;BME280;72786;53.546;9.910;2023-10-13T08:48:11;99945.81;;;17.14;97.53
82986;BME280;72786;53.546;9.910;2023-10-13T08:50:42;99942.50;;;17.16;97.95
82986;BME280;72786;53.546;9.910;2023-10-13T08:53:27;99929.69;;;17.19;97.55
82986;BME280;72786;53.546;9.910;2023-10-13T08:56:08;99919.81;;;17.12;97.20
82986;BME280;72786;53.546;9.910;2023-10-13T08:58:42;99940.56;;;17.28;97.83
82986;BME280;72786;53.546;9.910;2023-10-13T09:04:08;99937.31;;;17.32;97.07
82986;BME280;72786;53.546;9.910;2023-10-13T09:06:49;99911.66;;;17.38;97.56
82986;BME280;72786;53.546;9.910;2023-10-13T09:12:20;99947.25;;;17.56;96.51
82986;BME280;72786;53.546;9.910;2023-10-13T09:14:53;99920.53;;;17.59;96.46
82986;BME280;72786;53.546;9.910;2023-10-13T09:17:28;99927.66;;;17.63;96.14
82986;BME280;72786;53.546;9.910;2023-10-13T09:20:06;99926.19;;;17.68;97.12
82986;BME280;72786;53.546;9.910;2023-10-13T09:22:52;99924.88;;;17.76;97.13
82986;BME280;72786;53.546;9.910;2023-10-13T09:25:29;99927.91;;;17.85;96.45
82986;BME280;72786;53.546;9.910;2023-10-13T09:28:02;99919.41;;;17.87;95.68
82986;BME280;72786;53.546;9.910;2023-10-13T09:30:28;99918.66;;;17.90;95.11
82986;BME280;72786;53.546;9.910;2023-10-13T09:33:04;99921.91;;;17.86;96.15
82986;BME280;72786;53.546;9.910;2023-10-13T09:35:31;99899.03;;;17.79;96.45
82986;BME280;72786;53.546;9.910;2023-10-13T09:38:03;99918.19;;;17.98;95.83
82986;BME280;72786;53.546;9.910;2023-10-13T09:40:30;99906.94;;;17.98;94.89
82986;BME280;72786;53.546;9.910;2023-10-13T09:43:00;99908.09;;;17.87;95.46
82986;BME280;72786;53.546;9.910;2023-10-13T09:45:41;99905.13;;;17.97;93.42
82986;BME280;72786;53.546;9.910;2023-10-13T09:48:32;99897.88;;;17.90;94.60
82986;BME280;72786;53.546;9.910;2023-10-13T09:51:03;99892.56;;;17.88;93.57
82986;BME280;72786;53.546;9.910;2023-10-13T09:53:36;99887.31;;;17.87;93.57
82986;BME280;72786;53.546;9.910;2023-10-13T09:56:28;99884.47;;;17.82;94.38
82986;BME280;72786;53.546;9.910;2023-10-13T09:59:01;99874.16;;;17.66;93.89
82986;BME280;72786;53.546;9.910;2023-10-13T10:01:40;99877.97;;;17.73;93.58
82986;BME280;72786;53.546;9.910;2023-10-13T10:04:18;99862.06;;;17.67;95.43
82986;BME280;72786;53.546;9.910;2023-10-13T10:06:55;99870.97;;;17.72;95.31
82986;BME280;72786;53.546;9.910;2023-10-13T10:09:31;99841.94;;;17.63;94.92
82986;BME280;72786;53.546;9.910;2023-10-13T10:12:12;99864.00;;;17.71;95.29
82986;BME280;72786;53.546;9.910;2023-10-13T10:14:58;99848.56;;;17.74;94.60
82986;BME280;72786;53.546;9.910;2023-10-13T10:17:28;99862.44;;;17.74;94.79
82986;BME280;72786;53.546;9.910;2023-10-13T10:19:56;99829.41;;;17.72;94.80
82986;BME280;72786;53.546;9.910;2023-10-13T10:22:26;99842.09;;;17.83;95.15
82986;BME280;72786;53.546;9.910;2023-10-13T10:25:03;99824.19;;;17.89;95.61
82986;BME280;72786;53.546;9.910;2023-10-13T10:28:04;99834.53;;;17.88;94.76
82986;BME280;72786;53.546;9.910;2023-10-13T10:30:36;99834.16;;;17.98;95.28
82986;BME280;72786;53.546;9.910;2023-10-13T10:33:05;99804.31;;;17.90;95.24
82986;BME280;72786;53.546;9.910;2023-10-13T10:35:59;99816.31;;;18.05;94.38
82986;BME280;72786;53.546;9.910;2023-10-13T10:38:26;99809.69;;;18.12;95.16
82986;BME280;72786;53.546;9.910;2023-10-13T10:40:57;99816.88;;;18.17;94.37
82986;BME280;72786;53.546;9.910;2023-10-13T10:46:18;99791.97;;;18.39;93.23
82986;BME280;72786;53.546;9.910;2023-10-13T10:48:45;99786.22;;;18.46;93.83
82986;BME280;72786;53.546;9.910;2023-10-13T10:51:13;99767.47;;;18.53;92.39
82986;BME280;72786;53.546;9.910;2023-10-13T10:53:41;99772.94;;;18.59;93.52
82986;BME280;72786;53.546;9.910;2023-10-13T10:56:12;99759.88;;;18.58;92.86
82986;BME280;72786;53.546;9.910;2023-10-13T10:58:58;99773.94;;;18.63;93.94
82986;BME280;72786;53.546;9.910;2023-10-13T11:01:28;99780.22;;;18.68;92.57
82986;BME280;72786;53.546;9.910;2023-10-13T11:04:07;99757.06;;;18.74;93.48
82986;BME280;72786;53.546;9.910;2023-10-13T11:06:35;99751.19;;;18.78;91.82
82986;BME280;72786;53.546;9.910;2023-10-13T11:09:09;99758.69;;;18.91;92.81
82986;BME280;72786;53.546;9.910;2023-10-13T11:11:54;99744.28;;;18.98;92.59
82986;BME280;72786;53.546;9.910;2023-10-13T11:14:25;99721.94;;;19.03;91.50
82986;BME280;72786;53.546;9.910;2023-10-13T11:16:55;99708.47;;;18.93;93.39
82986;BME280;72786;53.546;9.910;2023-10-13T11:19:36;99705.72;;;19.09;92.15
82986;BME280;72786;53.546;9.910;2023-10-13T11:22:20;99697.34;;;19.16;91.20
82986;BME280;72786;53.546;9.910;2023-10-13T11:25:03;99699.66;;;19.52;91.50
82986;BME280;72786;53.546;9.910;2023-10-13T11:27:41;99693.22;;;19.86;88.54
82986;BME280;72786;53.546;9.910;2023-10-13T11:30:17;99672.66;;;19.72;89.19
82986;BME280;72786;53.546;9.910;2023-10-13T11:32:59;99674.97;;;19.65;90.35
82986;BME280;72786;53.546;9.910;2023-10-13T11:35:26;99676.13;;;19.71;90.46
82986;BME280;72786;53.546;9.910;2023-10-13T11:37:56;99663.09;;;19.71;90.31
82986;BME280;72786;53.546;9.910;2023-10-13T11:40:23;99671.56;;;19.89;89.80
82986;BME280;72786;53.546;9.910;2023-10-13T11:43:08;99675.06;;;20.11;88.25
82986;BME280;72786;53.546;9.910;2023-10-13T11:45:41;99678.28;;;20.04;87.39
82986;BME280;72786;53.546;9.910;2023-10-13T11:48:45;99657.56;;;20.09;88.19
82986;BME280;72786;53.546;9.910;2023-10-13T11:51:14;99655.09;;;20.12;88.99
82986;BME280;72786;53.546;9.910;2023-10-13T11:53:44;99648.34;;;20.18;87.61
82986;BME280;72786;53.546;9.910;2023-10-13T11:56:11;99662.78;;;20.32;88.66
82986;BME280;72786;53.546;9.910;2023-10-13T11:58:39;99665.28;;;20.29;86.49
82986;BME280;72786;53.546;9.910;2023-10-13T12:01:06;99663.50;;;20.28;87.52
82986;BME280;72786;53.546;9.910;2023-10-13T12:03:42;99649.84;;;20.35;87.80
82986;BME280;72786;53.546;9.910;2023-10-13T12:06:29;99651.63;;;20.36;86.52
82986;BME280;72786;53.546;9.910;2023-10-13T12:09:06;99615.09;;;20.36;86.04
82986;BME280;72786;53.546;9.910;2023-10-13T12:11:38;99641.59;;;20.48;87.50
82986;BME280;72786;53.546;9.910;2023-10-13T12:14:08;99620.53;;;20.42;86.58
82986;BME280;72786;53.546;9.910;2023-10-13T12:16:43;99625.94;;;20.48;86.54
82986;BME280;72786;53.546;9.910;2023-10-13T12:19:16;99622.50;;;20.49;84.97
82986;BME280;72786;53.546;9.910;2023-10-13T12:21:45;99603.28;;;20.47;85.58
82986;BME280;72786;53.546;9.910;2023-10-13T12:24:13;99599.50;;;20.62;84.81
82986;BME280;72786;53.546;9.910;2023-10-13T12:26:57;99608.41;;;20.69;83.56
82986;BME280;72786;53.546;9.910;2023-10-13T12:29:24;99611.34;;;20.78;83.50
82986;BME280;72786;53.546;9.910;2023-10-13T12:31:55;99604.47;;;20.80;82.12
82986;BME280;72786;53.546;9.910;2023-10-13T12:34:41;99573.75;;;20.73;81.87
82986;BME280;72786;53.546;9.910;2023-10-13T12:37:28;99622.94;;;20.86;82.83
82986;BME280;72786;53.546;9.910;2023-10-13T12:40:12;99596.75;;;20.84;82.16
82986;BME280;72786;53.546;9.910;2023-10-13T12:42:59;99594.41;;;20.92;83.06
82986;BME280;72786;53.546;9.910;2023-10-13T12:45:46;99569.47;;;21.01;80.27
82986;BME280;72786;53.546;9.910;2023-10-13T12:48:33;99578.47;;;21.11;79.97
82986;BME280;72786;53.546;9.910;2023-10-13T12:51:18;99579.28;;;21.10;80.46
82986;BME280;72786;53.546;9.910;2023-10-13T12:54:07;99581.00;;;21.08;81.24
82986;BME280;72786;53.546;9.910;2023-10-13T12:56:49;99586.28;;;21.11;81.48
82986;BME280;72786;53.546;9.910;2023-10-13T12:59:23;99576.69;;;21.10;80.93
82986;BME280;72786;53.546;9.910;2023-10-13T13:01:53;99569.91;;;21.15;80.89
82986;BME280;72786;53.546;9.910;2023-10-13T13:04:20;99574.38;;;21.19;81.55
82986;BME280;72786;53.546;9.910;2023-10-13T13:06:49;99532.56;;;21.19;80.31
82986;BME280;72786;53.546;9.910;2023-10-13T13:09:16;99559.03;;;21.30;80.76
82986;BME280;72786;53.546;9.910;2023-10-13T13:11:55;99563.44;;;21.31;80.98
82986;BME280;72786;53.546;9.910;2023-10-13T13:14:25;99552.91;;;21.28;80.97
82986;BME280;72786;53.546;9.910;2023-10-13T13:17:00;99571.03;;;21.23;80.55
82986;BME280;72786;53.546;9.910;2023-10-13T13:19:36;99558.53;;;21.42;79.98
82986;BME280;72786;53.546;9.910;2023-10-13T13:22:06;99534.00;;;21.66;79.51
82986;BME280;72786;53.546;9.910;2023-10-13T13:24:43;99533.53;;;21.79;78.58
82986;BME280;72786;53.546;9.910;2023-10-13T13:27:11;99531.50;;;22.32;75.88
82986;BME280;72786;53.546;9.910;2023-10-13T13:29:41;99528.78;;;22.63;76.04
82986;BME280;72786;53.546;9.910;2023-10-13T13:32:07;99520.28;;;22.38;75.87
82986;BME280;72786;53.546;9.910;2023-10-13T13:34:46;99499.03;;;22.98;73.18
82986;BME280;72786;53.546;9.910;2023-10-13T13:37:21;99508.50;;;22.91;74.59
82986;BME280;72786;53.546;9.910;2023-10-13T13:39:48;99496.34;;;22.57;75.01
82986;BME280;72786;53.546;9.910;2023-10-13T13:42:15;99490.19;;;22.21;75.72
82986;BME280;72786;53.546;9.910;2023-10-13T13:44:47;99493.97;;;22.00;76.80
82986;BME280;72786;53.546;9.910;2023-10-13T13:47:14;99497.25;;;21.93;77.58
82986;BME280;72786;53.546;9.910;2023-10-13T13:49:41;99471.75;;;21.84;77.42